Aeroporto :
LOGIN :

Iscrizione | Disclaimer

   EN    FR    IT 

 










Sommario :    VFR   VFR Marginale   IFR   IFR Intensivo   IFR Molto Intensivo
Visibilità : 
Base nubi : 
>= 8 km
>= 3000ft
5 / 8 km
1000 / 3000 ft
1500m / 5 km
500 / 1000 ft
800 / 1500m
200 / 500 ft
< 800m
< 200 ft
Simboli :   Temporali  Nebbia  Neve Forte  Precipitazioni Forti  Vento > 20 kt
SIGMETs :   Varie  Temporali  Ghiacco  Turbolenza  Onda orograficha  Ceneri Vulcaniche






- Altitudine del aeroporto : 656 ft
- Codice IATA : CMN


GMMN - Casablanca Mohammed V

ULTIMO METAR :
  • 171600Z 36010KT CAVOK 18/12 Q1027 NOSIG

METARs OBSOLETI :
  • 171530Z 36009KT 330V040 CAVOK 19/12 Q1027 NOSIG
  • 171500Z 35011KT 320V070 CAVOK 19/12 Q1027 NOSIG
  • 171430Z 34011KT CAVOK 19/12 Q1028 NOSIG
  • 171400Z 34009KT 310V060 CAVOK 19/12 Q1028 NOSIG
  • 171330Z 35007KT 290V040 CAVOK 19/12 Q1028 NOSIG

TAF TAF GMMN
Valido dal 17 a 12 ore il 18 a 18 ore UTC


171100Z 1712/1818 02010KT 9999 SCT013
BECMG 1719/1722 36004KT 3000 BR BKN008
TEMPO 1723/1809 0600 FG BKN003
BECMG 1811/1814 36010KT CAVOK



MetMap, La meteo Aeronautica in un colpo d'occhio ! - Copyright ORBIFLY Dicembre 2007 - Disclaimer

ORBIFLY MET'MAP TEAM :

Programmazione e sviluppo : Alexandra Zaïnal
Concezione : Baudouin d'Aumeries
Aiuto per la programmazione : Marc-Olivier Méhu
Supporto tecnico e logistico : Manuel Goepfert
Aiuto per la traduzione : Arnaldo La Scala

Contatto : metmap@orbifly.com




FONTI E CREDITI :

   NOAA